createdAt,value
2019-05-20T00:02:23.187Z,12.90
2019-05-20T00:04:38.540Z,9.63
2019-05-20T00:07:05.331Z,8.30
2019-05-20T00:09:32.114Z,9.20
2019-05-20T00:12:01.035Z,9.93
2019-05-20T00:14:27.794Z,8.40
2019-05-20T00:16:54.382Z,8.73
2019-05-20T00:19:23.076Z,8.67
2019-05-20T00:21:49.725Z,9.20
2019-05-20T00:24:16.311Z,8.13
2019-05-20T00:26:45.448Z,9.20
2019-05-20T00:29:12.378Z,8.47
2019-05-20T00:31:39.246Z,9.03
2019-05-20T00:34:08.458Z,10.07
2019-05-20T00:36:35.049Z,9.57
2019-05-20T00:39:01.632Z,9.40
2019-05-20T00:41:30.342Z,8.10
2019-05-20T00:43:57.213Z,10.20
2019-05-20T00:46:23.795Z,9.37
2019-05-20T00:48:52.661Z,9.53
2019-05-20T00:51:19.246Z,8.63
2019-05-20T00:53:46.112Z,8.80
2019-05-20T00:56:14.877Z,8.90
2019-05-20T00:58:43.085Z,8.45
2019-05-20T01:01:11.252Z,9.00
2019-05-20T01:03:40.059Z,7.77
2019-05-20T01:06:06.641Z,8.00
2019-05-20T01:08:33.224Z,8.50
2019-05-20T01:11:02.260Z,7.87
2019-05-20T01:13:28.845Z,7.57
2019-05-20T01:15:55.522Z,7.70
2019-05-20T01:18:24.256Z,6.83
2019-05-20T01:20:50.871Z,8.17
2019-05-20T01:23:17.646Z,7.67
2019-05-20T01:25:46.322Z,7.50
2019-05-20T01:28:13.043Z,7.63
2019-05-20T01:30:39.708Z,7.83
2019-05-20T01:33:13.972Z,7.20
2019-05-20T01:35:36.964Z,7.90
2019-05-20T01:38:03.554Z,8.47
2019-05-20T01:40:33.491Z,8.73
2019-05-20T01:43:00.074Z,8.73
2019-05-20T01:45:26.694Z,9.50
2019-05-20T01:47:58.815Z,7.90
2019-05-20T01:50:25.398Z,7.70
2019-05-20T01:52:52.035Z,8.40
2019-05-20T01:55:20.816Z,7.47
2019-05-20T01:57:47.600Z,7.77
2019-05-20T02:00:14.402Z,8.63
2019-05-20T02:02:43.760Z,7.33
2019-05-20T02:05:10.363Z,7.30
2019-05-20T02:07:37.218Z,6.43
2019-05-20T02:10:05.810Z,8.80
2019-05-20T02:12:32.675Z,7.80
2019-05-20T02:14:59.266Z,7.70
2019-05-20T02:17:29.847Z,8.10
2019-05-20T02:19:56.426Z,7.90
2019-05-20T02:22:23.320Z,8.47
2019-05-20T02:24:51.878Z,7.93
2019-05-20T02:27:18.484Z,8.23
2019-05-20T02:29:45.063Z,7.90
2019-05-20T02:32:13.583Z,9.00
2019-05-20T02:34:40.166Z,8.47
2019-05-20T02:37:06.756Z,9.00
2019-05-20T02:39:35.557Z,9.33
2019-05-20T02:42:02.161Z,9.97
2019-05-20T02:44:28.797Z,8.73
2019-05-20T02:46:57.314Z,8.33
2019-05-20T02:49:23.918Z,9.03
2019-05-20T02:51:55.120Z,9.10
2019-05-20T02:54:25.509Z,9.87
2019-05-20T02:56:58.313Z,8.40
2019-05-20T02:59:27.618Z,9.40
2019-05-20T03:01:56.459Z,8.80
2019-05-20T03:04:24.779Z,9.10
2019-05-20T03:06:53.329Z,8.90
2019-05-20T03:09:22.993Z,8.50
2019-05-20T03:11:56.162Z,8.25
2019-05-20T03:14:22.485Z,8.90
2019-05-20T03:16:51.106Z,8.33
2019-05-20T03:19:17.757Z,8.93
2019-05-20T03:21:44.363Z,8.90
2019-05-20T03:24:13.322Z,8.70
2019-05-20T03:26:39.912Z,8.70
2019-05-20T03:29:06.780Z,8.30
2019-05-20T03:31:36.519Z,9.17
2019-05-20T03:34:03.258Z,8.63
2019-05-20T03:36:30.126Z,8.10
2019-05-20T03:38:58.584Z,8.57
2019-05-20T03:41:25.446Z,8.65
2019-05-20T03:43:52.089Z,9.53
2019-05-20T03:46:20.900Z,8.63
2019-05-20T03:48:47.581Z,8.70
2019-05-20T03:51:15.283Z,8.38
2019-05-20T03:53:44.802Z,9.03
2019-05-20T03:56:12.389Z,9.20
2019-05-20T03:58:40.266Z,8.98
2019-05-20T04:01:08.860Z,9.00
2019-05-20T04:03:35.722Z,8.47
2019-05-20T04:06:02.311Z,8.90
2019-05-20T04:08:31.685Z,9.00
2019-05-20T04:10:58.286Z,10.17
2019-05-20T04:13:24.874Z,9.57
2019-05-20T04:15:54.460Z,9.43
2019-05-20T04:18:21.323Z,8.53
2019-05-20T04:20:47.909Z,9.40
2019-05-20T04:23:17.288Z,9.30
2019-05-20T04:25:43.955Z,9.33
2019-05-20T04:28:10.770Z,8.67
2019-05-20T04:30:42.406Z,8.27
2019-05-20T04:33:10.288Z,9.07
2019-05-20T04:35:36.984Z,9.60
2019-05-20T04:38:06.216Z,9.37
2019-05-20T04:40:32.868Z,9.90
2019-05-20T04:42:59.455Z,9.93
2019-05-20T04:45:28.081Z,10.73
2019-05-20T04:47:54.661Z,11.50
2019-05-20T04:50:21.836Z,10.15
2019-05-20T04:52:51.367Z,10.27
2019-05-20T04:55:18.076Z,10.33
2019-05-20T04:57:44.669Z,9.73
2019-05-20T05:00:13.427Z,11.33
2019-05-20T05:02:43.403Z,11.50
2019-05-20T05:05:08.463Z,11.27
2019-05-20T05:07:37.281Z,11.30
2019-05-20T05:10:03.871Z,10.17
2019-05-20T05:12:30.729Z,11.60
2019-05-20T05:14:59.365Z,10.00
2019-05-20T05:17:26.464Z,9.83
2019-05-20T05:19:54.058Z,10.00
2019-05-20T05:22:24.790Z,10.27
2019-05-20T05:24:52.390Z,10.90
2019-05-20T05:27:19.268Z,10.40
2019-05-20T05:29:51.059Z,10.33
2019-05-20T05:32:17.751Z,13.33
2019-05-20T05:34:45.355Z,10.90
2019-05-20T05:37:13.898Z,10.60
2019-05-20T05:39:40.923Z,12.10
2019-05-20T05:42:07.533Z,11.27
2019-05-20T05:44:37.329Z,10.70
2019-05-20T05:47:03.915Z,10.60
2019-05-20T05:49:30.516Z,11.73
2019-05-20T05:51:59.572Z,11.23
2019-05-20T05:54:27.180Z,12.77
2019-05-20T05:56:54.805Z,12.80
2019-05-20T05:59:25.695Z,14.27
2019-05-20T06:01:53.321Z,12.53
2019-05-20T06:04:23.277Z,12.13
2019-05-20T06:06:51.711Z,12.53
2019-05-20T06:09:19.392Z,11.77
2019-05-20T06:11:46.251Z,12.05
2019-05-20T06:14:15.064Z,13.87
2019-05-20T06:16:41.960Z,11.93
2019-05-20T06:19:08.619Z,12.83
2019-05-20T06:21:37.321Z,12.17
2019-05-20T06:24:03.961Z,12.50
2019-05-20T06:26:30.553Z,13.13
2019-05-20T06:29:02.709Z,12.87
2019-05-20T06:31:28.223Z,12.23
2019-05-20T06:33:54.787Z,11.70
2019-05-20T06:36:27.016Z,13.30
2019-05-20T06:38:53.179Z,12.40
2019-05-20T06:41:19.832Z,12.07
2019-05-20T06:43:49.997Z,11.88
2019-05-20T06:46:16.588Z,11.93
2019-05-20T06:48:43.189Z,13.43
2019-05-20T06:51:11.854Z,12.10
2019-05-20T06:53:39.779Z,11.10
2019-05-20T06:56:06.388Z,11.73
2019-05-20T06:58:35.128Z,11.70
2019-05-20T07:01:01.985Z,11.35
2019-05-20T07:03:28.594Z,14.10
2019-05-20T07:05:56.993Z,13.83
2019-05-20T07:08:23.780Z,13.50
2019-05-20T07:10:50.358Z,12.73
2019-05-20T07:13:19.618Z,12.43
2019-05-20T07:15:46.445Z,11.10
2019-05-20T07:18:13.307Z,10.55
2019-05-20T07:20:42.176Z,11.77
2019-05-20T07:23:08.775Z,11.47
2019-05-20T07:25:35.402Z,10.23
2019-05-20T07:28:05.370Z,11.10
2019-05-20T07:30:32.001Z,9.40
2019-05-20T07:32:58.594Z,10.00
2019-05-20T07:35:30.846Z,10.07
2019-05-20T07:37:55.579Z,9.00
2019-05-20T07:40:22.228Z,7.83
2019-05-20T07:42:50.930Z,8.30
2019-05-20T07:45:17.600Z,7.25
2019-05-20T07:47:44.219Z,9.67
2019-05-20T07:50:14.124Z,9.80
2019-05-20T07:52:40.994Z,10.13
2019-05-20T07:55:07.608Z,9.23
2019-05-20T07:57:41.876Z,8.10
2019-05-20T08:00:08.504Z,9.10
2019-05-20T08:02:35.600Z,9.18
2019-05-20T08:05:05.864Z,7.87
2019-05-20T08:07:50.742Z,8.65
2019-05-20T08:10:01.403Z,10.40
2019-05-20T08:12:30.428Z,10.30
2019-05-20T08:14:57.061Z,10.43
2019-05-20T08:17:23.693Z,8.90
2019-05-20T08:19:56.579Z,9.50
2019-05-20T08:22:23.141Z,8.37
2019-05-20T08:24:50.005Z,9.70
2019-05-20T08:27:18.856Z,8.40
2019-05-20T08:29:45.462Z,8.53
2019-05-20T08:32:12.328Z,7.78
2019-05-20T08:34:40.975Z,7.83
2019-05-20T08:37:08.820Z,8.90
2019-05-20T08:39:35.401Z,7.50
2019-05-20T08:42:04.042Z,8.48
2019-05-20T08:44:30.726Z,7.87
2019-05-20T08:46:58.671Z,7.33
2019-05-20T08:49:27.275Z,8.30
2019-05-20T08:51:53.852Z,7.53
2019-05-20T08:54:20.746Z,8.23
2019-05-20T08:56:50.032Z,7.80
2019-05-20T08:59:16.639Z,7.40
2019-05-20T09:01:43.216Z,8.07
2019-05-20T09:04:11.815Z,6.60
2019-05-20T09:06:38.450Z,7.10
2019-05-20T09:09:05.142Z,6.27
2019-05-20T09:11:35.965Z,6.33
2019-05-20T09:14:02.872Z,6.57
2019-05-20T09:16:29.464Z,7.17
2019-05-20T09:18:58.255Z,6.10
2019-05-20T09:21:25.060Z,7.53
2019-05-20T09:23:51.769Z,6.20
2019-05-20T09:26:20.817Z,6.30
2019-05-20T09:28:47.690Z,6.40
2019-05-20T09:31:14.596Z,5.73
2019-05-20T09:33:44.440Z,6.08
2019-05-20T09:36:11.358Z,5.80
2019-05-20T09:38:38.140Z,5.97
2019-05-20T09:41:07.306Z,6.20
2019-05-20T09:46:07.644Z,6.97
2019-05-20T09:48:30.922Z,5.75
2019-05-20T09:50:57.757Z,5.83
2019-05-20T09:53:24.930Z,4.50
2019-05-20T12:30:39.124Z,2.30
2019-05-20T12:33:18.523Z,2.42
2019-05-20T12:35:34.610Z,1.90
2019-05-20T12:38:03.563Z,2.00
2019-05-20T12:40:31.133Z,2.00
2019-05-20T12:42:58.017Z,1.70
2019-05-20T12:45:27.901Z,1.90
2019-05-20T12:47:55.071Z,2.10
2019-05-20T12:50:21.942Z,1.77
2019-05-20T12:52:51.454Z,1.70
2019-05-20T12:55:18.325Z,1.90
2019-05-20T12:57:45.042Z,1.80
2019-05-20T13:00:17.472Z,2.10
2019-05-20T13:02:44.472Z,2.00
2019-05-20T13:05:11.063Z,2.23
2019-05-20T13:07:40.069Z,2.10
2019-05-20T13:10:26.010Z,2.05
2019-05-20T13:12:35.810Z,2.37
2019-05-20T13:15:05.617Z,2.05
2019-05-20T13:17:32.575Z,1.90
2019-05-20T13:19:59.180Z,2.67
2019-05-20T13:22:31.359Z,2.80
2019-05-20T13:24:58.043Z,2.57
2019-05-20T13:27:24.724Z,2.70
2019-05-20T13:29:57.724Z,3.00
2019-05-20T13:32:24.881Z,2.60
2019-05-20T13:34:51.737Z,2.47
2019-05-20T13:37:20.938Z,2.90
2019-05-20T13:39:47.786Z,3.17
2019-05-20T13:42:14.649Z,2.73
2019-05-20T13:44:45.574Z,2.40
2019-05-20T14:21:40.586Z,3.40
2019-05-20T14:24:12.525Z,2.90
2019-05-20T14:26:39.429Z,3.00
2019-05-20T14:29:07.663Z,3.58
2019-05-20T14:31:36.114Z,2.73
2019-05-20T14:34:02.678Z,3.33
2019-05-20T14:36:39.247Z,4.80
2019-05-20T14:41:33.234Z,3.83
2019-05-20T14:44:00.059Z,3.47
2019-05-20T14:46:26.649Z,3.40
2019-05-20T14:48:55.098Z,2.97
2019-05-20T14:51:21.788Z,3.60
2019-05-20T14:53:48.387Z,3.60
2019-05-20T14:58:50.005Z,2.80
2019-05-20T15:01:16.846Z,2.33
2019-05-20T15:03:43.536Z,2.10
2019-05-20T15:08:48.280Z,2.27
2019-05-20T15:11:15.111Z,2.20
2019-05-20T15:13:43.192Z,2.17
2019-05-20T15:16:11.598Z,1.90
2019-05-20T15:18:38.487Z,1.80
2019-05-20T15:21:05.091Z,1.50
2019-05-20T15:26:06.127Z,1.80
2019-05-20T15:28:32.806Z,2.10
2019-05-20T15:30:59.424Z,2.77
2019-05-20T15:33:31.403Z,2.40
2019-05-20T15:35:58.051Z,2.73
2019-05-20T15:38:24.740Z,2.73
2019-05-20T15:40:53.181Z,3.10
2019-05-20T15:43:19.809Z,2.90
2019-05-20T15:45:46.441Z,2.60
2019-05-20T15:48:18.597Z,2.30
2019-05-20T15:50:45.469Z,2.20
2019-05-20T15:53:13.369Z,1.90
2019-05-20T15:55:42.410Z,1.50
2019-05-20T15:58:09.353Z,1.60
2019-05-20T16:00:36.042Z,1.50
2019-05-20T16:03:04.920Z,1.67
2019-05-20T16:05:31.525Z,1.80
2019-05-20T16:07:58.117Z,1.70
2019-05-20T16:10:30.046Z,1.50
2019-05-20T16:12:56.901Z,1.65
2019-05-20T16:15:23.768Z,1.50
2019-05-20T16:17:52.575Z,1.80
2019-05-20T16:20:19.417Z,1.87
2019-05-20T16:22:46.492Z,1.60
2019-05-20T16:25:15.486Z,1.80
2019-05-20T16:27:42.202Z,1.70
2019-05-20T16:30:08.810Z,1.80
2019-05-20T16:35:10.152Z,1.92
2019-05-20T16:37:36.729Z,1.90
2019-05-20T16:40:03.678Z,1.90
2019-05-20T16:42:32.453Z,2.00
2019-05-20T16:44:59.125Z,1.87
2019-05-20T16:47:26.104Z,1.97
2019-05-20T16:49:54.698Z,2.40
2019-05-20T16:52:21.268Z,2.47
2019-05-20T16:54:48.211Z,2.30
2019-05-20T16:59:52.377Z,2.25
2019-05-20T17:02:18.966Z,2.30
2019-05-20T17:04:45.569Z,2.63
2019-05-20T17:07:14.553Z,2.23
2019-05-20T17:09:41.321Z,2.83
2019-05-20T17:12:08.206Z,2.53
2019-05-20T17:19:42.113Z,2.10
2019-05-20T17:22:08.722Z,2.17
2019-05-20T17:24:35.542Z,2.57
2019-05-20T17:27:04.143Z,2.30
2019-05-20T17:29:31.059Z,2.70
2019-05-20T17:31:57.828Z,2.53
2019-05-20T17:34:27.325Z,2.62
2019-05-20T17:36:54.153Z,2.70
2019-05-20T17:39:20.748Z,2.23
2019-05-20T17:41:49.478Z,2.53
2019-05-20T17:44:16.069Z,2.33
2019-05-20T17:46:42.702Z,2.10
2019-05-20T17:49:11.537Z,2.17
2019-05-20T17:51:38.135Z,1.70
2019-05-20T17:54:04.729Z,2.20
2019-05-20T17:56:36.954Z,2.33
2019-05-20T17:59:03.542Z,2.30
2019-05-20T18:01:30.399Z,2.58
2019-05-20T18:04:00.974Z,2.80
2019-05-20T18:06:27.570Z,2.23
2019-05-20T18:08:54.300Z,2.33
2019-05-20T18:16:27.837Z,2.43
2019-05-20T18:18:54.716Z,2.30
2019-05-20T18:21:21.546Z,2.60
2019-05-20T18:23:54.135Z,2.63
2019-05-20T18:26:24.737Z,2.20
2019-05-20T18:28:52.537Z,2.00
2019-05-20T18:36:28.006Z,2.20
2019-05-20T18:38:54.879Z,2.60
2019-05-20T18:41:21.484Z,2.60
2019-05-20T18:43:53.781Z,2.40
2019-05-20T18:46:21.656Z,2.40
2019-05-20T18:48:48.255Z,2.00
2019-05-20T18:53:50.499Z,2.57
2019-05-20T18:56:17.418Z,2.30
2019-05-20T18:58:44.373Z,2.37
2019-05-20T19:03:46.667Z,2.55
2019-05-20T19:06:13.372Z,2.50
2019-05-20T19:08:39.987Z,3.40
2019-05-20T19:11:08.249Z,3.20
2019-05-20T19:13:34.791Z,2.80
2019-05-20T19:16:01.382Z,2.50
2019-05-20T19:18:30.685Z,2.33
2019-05-20T19:20:57.558Z,2.40
2019-05-20T19:23:24.178Z,2.53
2019-05-20T19:25:54.430Z,2.70
2019-05-20T19:28:21.301Z,2.35
2019-05-20T19:30:48.144Z,2.50
2019-05-20T19:33:16.722Z,3.07
2019-05-20T19:35:43.599Z,3.30
2019-05-20T19:38:10.765Z,2.62
2019-05-20T19:40:39.274Z,2.20
2019-05-20T19:43:06.383Z,2.58
2019-05-20T19:45:32.992Z,2.30
2019-05-20T19:48:02.647Z,2.50
2019-05-20T19:50:29.238Z,1.90
2019-05-20T19:52:55.833Z,3.07
2019-05-20T19:55:24.607Z,2.10
2019-05-20T19:57:53.433Z,2.20
2019-05-20T20:00:20.078Z,2.20
2019-05-20T20:02:48.784Z,2.23
2019-05-20T20:05:15.372Z,2.60
2019-05-20T20:07:41.958Z,2.70
2019-05-20T20:10:10.616Z,2.37
2019-05-20T20:12:37.207Z,2.47
2019-05-20T20:15:04.091Z,1.93
2019-05-20T20:17:32.725Z,2.20
2019-05-20T20:19:59.376Z,2.73
2019-05-20T20:22:26.245Z,2.67
2019-05-20T20:24:55.734Z,2.57
2019-05-20T20:27:22.647Z,2.67
2019-05-20T20:29:49.238Z,2.00
2019-05-20T20:32:36.821Z,2.40
2019-05-20T20:34:49.227Z,2.10
2019-05-20T20:37:15.836Z,1.93
2019-05-20T20:39:45.459Z,2.10
2019-05-20T20:42:12.240Z,2.20
2019-05-20T20:44:38.828Z,1.90
2019-05-20T20:47:07.744Z,1.80
2019-05-20T20:49:34.396Z,1.80
2019-05-20T20:52:01.113Z,1.80
2019-05-20T20:57:04.041Z,1.83
2019-05-20T20:59:30.645Z,2.20
2019-05-20T21:01:59.553Z,1.73
2019-05-20T21:04:26.440Z,2.33
2019-05-20T21:06:53.317Z,2.57
2019-05-20T21:09:23.908Z,2.00
2019-05-20T21:11:50.533Z,1.90
2019-05-20T21:14:17.126Z,1.80
2019-05-20T21:16:45.888Z,2.20
2019-05-20T21:19:12.485Z,2.07
2019-05-20T21:21:39.112Z,1.73
2019-05-20T21:24:07.820Z,1.83
2019-05-20T21:26:34.495Z,2.10
2019-05-20T21:29:01.268Z,2.43
2019-05-20T21:31:29.775Z,2.10
2019-05-20T21:33:56.361Z,2.30
2019-05-20T21:36:23.238Z,2.10
2019-05-20T21:39:05.999Z,2.30
2019-05-20T21:41:20.360Z,1.90
2019-05-20T21:43:47.156Z,1.93
2019-05-20T21:46:15.893Z,1.70
2019-05-20T21:48:42.475Z,1.77
2019-05-20T21:51:09.075Z,1.90
2019-05-20T21:53:38.089Z,1.73
2019-05-20T21:56:04.669Z,2.20
2019-05-20T21:58:31.371Z,2.37
2019-05-20T22:01:00.149Z,1.70
2019-05-20T22:03:26.744Z,1.90
2019-05-20T22:05:53.600Z,1.70
2019-05-20T22:08:25.400Z,1.83
2019-05-20T22:10:52.002Z,1.67
2019-05-20T22:13:18.587Z,1.70
2019-05-20T22:15:47.305Z,1.67
2019-05-20T22:18:13.902Z,1.90
2019-05-20T22:20:40.839Z,2.00
2019-05-20T22:23:09.449Z,1.80
2019-05-20T22:25:36.323Z,1.80
2019-05-20T22:28:03.184Z,2.33
2019-05-20T22:30:31.914Z,2.40
2019-05-20T22:32:58.518Z,1.87
2019-05-20T22:35:25.117Z,1.80
2019-05-20T22:37:54.020Z,2.08
2019-05-20T22:40:20.876Z,2.20
2019-05-20T22:42:47.496Z,2.20
2019-05-20T22:45:16.762Z,2.95
2019-05-20T22:47:43.356Z,2.60
2019-05-20T22:50:10.280Z,2.35
2019-05-20T22:52:45.337Z,3.20
2019-05-20T22:55:11.812Z,2.50
2019-05-20T22:57:38.401Z,2.60
2019-05-20T23:00:08.844Z,2.60
2019-05-20T23:02:35.765Z,3.27
2019-05-20T23:05:02.543Z,2.40
2019-05-20T23:07:31.878Z,2.20
2019-05-20T23:09:58.484Z,2.77
2019-05-20T23:12:25.075Z,2.80
2019-05-20T23:14:53.623Z,3.30
2019-05-20T23:17:20.216Z,2.53
2019-05-20T23:19:46.795Z,2.15
2019-05-20T23:24:46.951Z,2.43
2019-05-20T23:27:13.547Z,2.27
2019-05-20T23:29:40.205Z,2.30
2019-05-20T23:32:08.575Z,2.60
2019-05-20T23:34:35.159Z,2.00
2019-05-20T23:37:01.814Z,2.10
2019-05-20T23:39:29.689Z,2.20
2019-05-20T23:41:56.380Z,2.43
2019-05-20T23:44:23.135Z,2.40
2019-05-20T23:46:52.453Z,2.07
2019-05-20T23:49:19.105Z,2.50
2019-05-20T23:51:45.984Z,2.77
2019-05-20T23:54:14.987Z,2.03
2019-05-20T23:56:41.634Z,1.83
2019-05-20T23:59:08.235Z,1.90
